Time;durP1;ratioP1;P1;durP2;ratioP2;P2;SDS_P1;SDS_P2;PMS_P1;PMS_P2;Temp;Humidity;BMP_temperature;BMP_pressure;BME280_temperature;BME280_humidity;BME280_pressure;Samples;Min_cycle;Max_cycle;Signal;HPM_P1;HPM_P2
2021/05/22 00:01:37;;;;;;;3.08;1.40;;;10.60;99.90;;;;;;5022945;28;20045;-83
2021/05/22 00:04:03;;;;;;;4.07;1.80;;;10.60;99.90;;;;;;5036363;28;20034;-86
2021/05/22 00:06:29;;;;;;;5.20;1.40;;;10.60;99.90;;;;;;5037937;28;20049;-84
2021/05/22 00:08:55;;;;;;;4.00;1.17;;;10.70;99.90;;;;;;5036742;28;20053;-87
2021/05/22 00:11:21;;;;;;;3.70;1.38;;;11.40;99.90;;;;;;5037540;28;20467;-86
2021/05/22 00:13:46;;;;;;;2.97;1.23;;;10.60;99.90;;;;;;5037838;28;20112;-87
2021/05/22 00:16:12;;;;;;;2.15;1.10;;;10.50;99.90;;;;;;5038854;28;20025;-85
2021/05/22 00:18:38;;;;;;;2.63;1.00;;;10.60;99.90;;;;;;5028410;28;20046;-85
2021/05/22 00:21:03;;;;;;;4.03;1.10;;;10.60;99.90;;;;;;5036672;28;20049;-85
2021/05/22 00:23:29;;;;;;;5.32;1.20;;;10.60;99.90;;;;;;5038026;28;20037;-82
2021/05/22 00:25:55;;;;;;;4.60;1.20;;;10.50;99.90;;;;;;5031909;28;20579;-85
2021/05/22 00:28:20;;;;;;;4.57;1.13;;;10.50;99.90;;;;;;5026737;28;20096;-82
2021/05/22 00:30:46;;;;;;;7.28;1.55;;;10.50;99.90;;;;;;5043921;28;20021;-84
2021/05/22 00:33:12;;;;;;;4.45;1.10;;;10.50;99.90;;;;;;5036989;28;20113;-84
2021/05/22 00:35:37;;;;;;;4.15;1.15;;;11.50;99.90;;;;;;5037340;28;20029;-83
2021/05/22 00:38:03;;;;;;;3.85;1.08;;;10.40;99.90;;;;;;5038028;28;20025;-85
2021/05/22 00:40:29;;;;;;;3.97;1.85;;;10.50;99.90;;;;;;5028331;28;20064;-83
2021/05/22 00:42:57;;;;;;;3.70;1.30;;;10.50;99.90;;;;;;5036537;28;20030;-84
2021/05/22 00:45:23;;;;;;;2.22;1.02;;;10.40;99.90;;;;;;5032248;28;20036;-84
2021/05/22 00:47:55;;;;;;;6.97;1.25;;;10.40;99.90;;;;;;5033549;28;20036;-83
2021/05/22 00:50:44;;;;;;;2.22;0.90;;;10.30;99.90;;;;;;5030234;28;20025;-87
2021/05/22 00:53:11;;;;;;;5.72;1.15;;;10.20;99.90;;;;;;5032805;28;20065;-82
2021/05/22 00:55:37;;;;;;;5.50;1.20;;;10.00;99.90;;;;;;5042860;28;20025;-84
2021/05/22 00:58:04;;;;;;;4.75;1.00;;;10.50;99.90;;;;;;5038308;28;20055;-85
2021/05/22 01:00:41;;;;;;;3.88;1.13;;;10.10;99.90;;;;;;5036344;28;20041;-82
2021/05/22 01:03:18;;;;;;;2.42;0.90;;;10.10;99.90;;;;;;5039457;28;20029;-87
2021/05/22 01:05:44;;;;;;;4.40;1.30;;;10.20;99.90;;;;;;5037849;28;20093;-82
2021/05/22 01:08:19;;;;;;;3.42;1.30;;;10.40;99.90;;;;;;5050308;28;20017;-86
2021/05/22 01:10:48;;;;;;;2.55;0.98;;;11.10;99.90;;;;;;5031472;28;20145;-87
2021/05/22 01:13:18;;;;;;;5.25;1.20;;;10.10;99.90;;;;;;5039519;28;20033;-86
2021/05/22 01:15:50;;;;;;;4.90;1.15;;;10.10;99.90;;;;;;5039059;28;20535;-83
2021/05/22 01:18:16;;;;;;;4.97;1.13;;;10.10;99.90;;;;;;5051507;28;20072;-86
2021/05/22 01:20:49;;;;;;;2.30;0.98;;;10.10;99.90;;;;;;5036588;28;20053;-86
2021/05/22 01:23:21;;;;;;;4.93;1.20;;;10.10;99.90;;;;;;5034971;28;20041;-83
2021/05/22 01:25:49;;;;;;;5.22;1.48;;;10.10;99.90;;;;;;5036256;28;20030;-86
2021/05/22 01:28:16;;;;;;;6.57;1.30;;;10.00;99.90;;;;;;5038428;28;20026;-86
2021/05/22 01:30:44;;;;;;;5.82;1.17;;;10.00;99.90;;;;;;5036978;28;20048;-84
2021/05/22 01:33:10;;;;;;;3.10;1.17;;;10.00;99.90;;;;;;5035303;28;20045;-85
2021/05/22 01:35:37;;;;;;;5.40;1.00;;;10.00;99.90;;;;;;5042991;28;20037;-83
2021/05/22 01:38:03;;;;;;;4.80;1.33;;;10.00;99.90;;;;;;5037470;28;20309;-84
2021/05/22 01:40:31;;;;;;;3.72;1.00;;;9.90;99.90;;;;;;5038450;28;20026;-86
2021/05/22 01:43:00;;;;;;;1.98;1.20;;;9.90;99.90;;;;;;5033540;28;20395;-87
2021/05/22 01:45:28;;;;;;;4.45;1.20;;;9.90;99.90;;;;;;5039943;28;20030;-87
2021/05/22 01:47:55;;;;;;;3.45;1.17;;;9.80;99.90;;;;;;5038890;28;20524;-86
2021/05/22 01:50:23;;;;;;;3.97;1.23;;;10.00;99.90;;;;;;5039146;28;20025;-85
2021/05/22 01:52:51;;;;;;;4.20;1.27;;;9.70;99.90;;;;;;5034716;28;20028;-84
2021/05/22 01:55:18;;;;;;;3.85;1.25;;;9.80;99.90;;;;;;5035007;28;20511;-85
2021/05/22 01:57:44;;;;;;;4.03;1.20;;;11.10;99.90;;;;;;5037064;28;20475;-83
2021/05/22 02:00:12;;;;;;;6.82;1.75;;;9.70;99.90;;;;;;5033007;28;20121;-83
2021/05/22 02:02:50;;;;;;;4.03;1.10;;;9.60;99.90;;;;;;5029864;28;20017;-84
2021/05/22 02:05:18;;;;;;;5.30;2.05;;;10.00;99.90;;;;;;5036164;28;20070;-86
2021/05/22 02:07:45;;;;;;;3.85;1.30;;;9.70;99.90;;;;;;5029544;28;20040;-87
2021/05/22 02:10:11;;;;;;;5.18;1.38;;;9.60;99.90;;;;;;5035691;28;20045;-84
2021/05/22 02:12:40;;;;;;;2.95;1.20;;;9.60;99.90;;;;;;5035375;28;20094;-85
2021/05/22 02:15:09;;;;;;;5.20;1.92;;;9.60;99.90;;;;;;5035010;28;20025;-84
2021/05/22 02:17:37;;;;;;;5.80;1.20;;;9.60;99.90;;;;;;5036044;28;20021;-85
2021/05/22 02:20:04;;;;;;;4.47;1.58;;;9.60;99.90;;;;;;5035894;28;20026;-85
2021/05/22 02:22:31;;;;;;;5.20;1.23;;;9.60;99.90;;;;;;5053819;28;20402;-83
2021/05/22 02:24:59;;;;;;;4.88;1.23;;;9.70;99.90;;;;;;5020460;28;20025;-85
2021/05/22 02:27:24;;;;;;;3.47;1.05;;;9.50;99.90;;;;;;5036027;28;20037;-86
2021/05/22 02:29:51;;;;;;;5.18;1.25;;;9.60;99.90;;;;;;5040585;28;20029;-83
2021/05/22 02:32:18;;;;;;;2.63;1.13;;;9.50;99.90;;;;;;5031604;28;20025;-85
2021/05/22 02:34:52;;;;;;;6.30;1.40;;;9.60;99.90;;;;;;5031794;28;20029;-82
2021/05/22 02:37:24;;;;;;;4.05;1.02;;;9.60;99.90;;;;;;5040002;28;20026;-84
2021/05/22 02:39:51;;;;;;;4.35;1.23;;;10.90;99.90;;;;;;5032272;28;20030;-85
2021/05/22 02:42:18;;;;;;;3.85;1.20;;;10.70;99.90;;;;;;5048028;28;20029;-84
2021/05/22 02:44:50;;;;;;;2.72;1.10;;;9.40;99.90;;;;;;5032221;28;20056;-85
2021/05/22 02:47:18;;;;;;;3.75;1.38;;;9.50;99.90;;;;;;5040152;28;20033;-84
2021/05/22 02:49:46;;;;;;;6.75;2.20;;;9.30;99.90;;;;;;5047344;28;20032;-85
2021/05/22 02:52:14;;;;;;;3.05;1.38;;;9.30;99.90;;;;;;5022800;28;20026;-83
2021/05/22 02:54:43;;;;;;;5.57;1.80;;;9.30;99.90;;;;;;5031278;28;20040;-84
2021/05/22 02:57:10;;;;;;;4.75;1.30;;;9.30;99.90;;;;;;5038693;28;20029;-83
2021/05/22 02:59:36;;;;;;;7.50;1.50;;;10.50;99.90;;;;;;5039796;28;20029;-84
2021/05/22 03:02:03;;;;;;;4.90;1.40;;;9.30;99.90;;;;;;5039043;28;20036;-85
2021/05/22 03:04:31;;;;;;;3.97;1.45;;;9.30;99.90;;;;;;5039463;28;20051;-86
2021/05/22 03:06:58;;;;;;;5.70;1.30;;;9.30;99.90;;;;;;4994220;28;20084;-85
2021/05/22 03:09:24;;;;;;;8.50;3.03;;;9.20;99.90;;;;;;5040192;28;20033;-85
2021/05/22 03:11:49;;;;;;;5.57;1.40;;;9.20;99.90;;;;;;5040742;28;20026;-86
2021/05/22 03:14:15;;;;;;;4.57;1.60;;;9.30;99.90;;;;;;5040252;28;20118;-86
2021/05/22 03:16:41;;;;;;;6.70;1.30;;;9.40;99.90;;;;;;5039775;28;20479;-83
2021/05/22 03:19:06;;;;;;;7.97;2.10;;;9.40;99.90;;;;;;5039997;28;20025;-83
2021/05/22 03:21:32;;;;;;;4.45;1.42;;;9.40;99.90;;;;;;5039707;28;20027;-84
2021/05/22 03:23:58;;;;;;;4.28;1.17;;;9.50;99.90;;;;;;5032481;28;20076;-85
2021/05/22 03:26:24;;;;;;;3.92;1.00;;;9.40;99.90;;;;;;5037663;28;20026;-84
2021/05/22 03:28:49;;;;;;;5.30;1.52;;;9.40;99.90;;;;;;5038645;28;20407;-84
2021/05/22 03:31:15;;;;;;;7.80;1.60;;;9.40;99.90;;;;;;5039064;28;20105;-84
2021/05/22 03:33:41;;;;;;;4.90;1.40;;;9.40;99.90;;;;;;5039616;28;20056;-85
2021/05/22 03:36:07;;;;;;;3.72;1.48;;;9.40;99.90;;;;;;5035955;28;20033;-85
2021/05/22 03:38:32;;;;;;;4.15;1.30;;;9.30;99.90;;;;;;5039864;28;20490;-83
2021/05/22 03:40:58;;;;;;;5.88;1.77;;;9.30;99.90;;;;;;5038606;28;20053;-82
2021/05/22 03:43:24;;;;;;;4.30;1.38;;;10.30;99.90;;;;;;5039201;28;20025;-84
2021/05/22 03:45:52;;;;;;;8.65;1.67;;;9.40;99.90;;;;;;5038170;28;20040;-86
2021/05/22 03:48:18;;;;;;;4.07;1.35;;;9.20;99.90;;;;;;5038465;28;20029;-82
2021/05/22 03:50:43;;;;;;;7.15;1.92;;;9.20;99.90;;;;;;5033541;28;20056;-85
2021/05/22 03:53:10;;;;;;;7.03;1.77;;;9.20;99.90;;;;;;5036029;28;20030;-81
2021/05/22 03:55:36;;;;;;;4.50;1.60;;;10.10;99.90;;;;;;5061939;28;20026;-85
2021/05/22 03:58:02;;;;;;;5.97;1.58;;;9.20;99.90;;;;;;5037783;28;20056;-82
2021/05/22 04:00:28;;;;;;;2.72;1.20;;;9.50;99.90;;;;;;5038714;28;20044;-85
2021/05/22 04:02:53;;;;;;;4.65;1.70;;;9.30;99.90;;;;;;5034841;28;20022;-84
2021/05/22 04:05:19;;;;;;;8.80;1.92;;;10.00;99.90;;;;;;5038444;28;20036;-84
2021/05/22 04:07:45;;;;;;;7.00;1.75;;;9.30;99.90;;;;;;5049073;28;20057;-83
2021/05/22 04:10:11;;;;;;;6.30;1.20;;;9.30;99.90;;;;;;5041349;28;20040;-83
2021/05/22 04:12:36;;;;;;;5.57;1.45;;;9.30;99.90;;;;;;5043312;28;20017;-83
2021/05/22 04:15:03;;;;;;;3.28;1.35;;;9.40;99.90;;;;;;5053422;28;20100;-85
2021/05/22 04:17:29;;;;;;;4.88;1.20;;;9.40;99.90;;;;;;5037089;28;20025;-82
2021/05/22 04:19:54;;;;;;;5.18;1.60;;;9.40;99.90;;;;;;5020582;28;20373;-85
2021/05/22 04:22:26;;;;;;;10.30;2.00;;;9.40;99.90;;;;;;5031428;28;20037;-85
2021/05/22 04:24:51;;;;;;;8.65;1.88;;;10.20;99.90;;;;;;5040900;28;20021;-84
2021/05/22 04:27:17;;;;;;;3.72;1.50;;;9.50;99.90;;;;;;5040845;28;20522;-85
2021/05/22 04:29:43;;;;;;;6.03;1.67;;;9.50;99.90;;;;;;5029667;28;20028;-86
2021/05/22 04:32:08;;;;;;;6.47;1.63;;;9.50;99.90;;;;;;5036823;28;20076;-84
2021/05/22 04:34:34;;;;;;;6.63;1.50;;;9.90;99.90;;;;;;5049144;28;20032;-84
2021/05/22 04:37:00;;;;;;;7.45;1.45;;;10.80;99.90;;;;;;5033070;28;20116;-86
2021/05/22 04:39:26;;;;;;;6.95;1.80;;;9.60;99.90;;;;;;5039802;28;20029;-87
2021/05/22 04:41:55;;;;;;;7.32;1.92;;;9.60;99.90;;;;;;5042400;28;20049;-85
2021/05/22 04:44:21;;;;;;;3.95;1.45;;;9.70;99.90;;;;;;5040099;28;20033;-86
2021/05/22 04:46:46;;;;;;;6.63;1.50;;;9.50;99.90;;;;;;5040656;28;20037;-86
2021/05/22 04:49:12;;;;;;;5.05;1.30;;;9.50;99.90;;;;;;5036176;28;20064;-87
2021/05/22 04:51:38;;;;;;;7.55;1.45;;;9.80;99.90;;;;;;5020182;28;20022;-82
2021/05/22 04:54:08;;;;;;;7.85;1.80;;;9.80;99.90;;;;;;5031100;28;20025;-86
2021/05/22 04:56:35;;;;;;;5.35;1.60;;;9.90;99.90;;;;;;5042397;28;20026;-86
2021/05/22 04:59:01;;;;;;;7.72;1.70;;;10.00;99.90;;;;;;5041606;28;20037;-84
2021/05/22 05:01:26;;;;;;;7.70;1.73;;;10.00;99.90;;;;;;5033096;28;20030;-85
2021/05/22 05:03:54;;;;;;;3.92;1.10;;;10.00;99.90;;;;;;5039944;28;20029;-82
2021/05/22 05:06:20;;;;;;;6.88;1.60;;;10.00;99.90;;;;;;5061122;28;20024;-84
2021/05/22 05:08:46;;;;;;;6.80;1.42;;;10.70;99.90;;;;;;5044518;28;20414;-84
2021/05/22 05:11:12;;;;;;;4.05;1.40;;;11.30;99.90;;;;;;5040715;28;20394;-84
2021/05/22 05:13:38;;;;;;;9.75;1.90;;;9.90;99.90;;;;;;5040519;28;20087;-82
2021/05/22 05:16:04;;;;;;;6.85;1.83;;;10.40;99.90;;;;;;5039943;28;20501;-87
2021/05/22 05:18:30;;;;;;;6.28;1.20;;;10.20;99.90;;;;;;5040476;28;20033;-86
2021/05/22 05:20:56;;;;;;;8.15;1.70;;;10.70;99.90;;;;;;5037082;28;20030;-84
2021/05/22 05:23:22;;;;;;;9.25;1.33;;;10.30;99.90;;;;;;5035005;28;20472;-83
2021/05/22 05:25:51;;;;;;;7.00;1.40;;;10.30;99.90;;;;;;5040327;28;20096;-86
2021/05/22 05:28:20;;;;;;;9.43;1.83;;;10.30;99.90;;;;;;5049261;28;20566;-85
2021/05/22 05:30:46;;;;;;;3.72;1.52;;;10.60;99.90;;;;;;5021484;28;20045;-85
2021/05/22 05:33:12;;;;;;;7.82;1.20;;;10.30;99.90;;;;;;5026966;28;20022;-86
2021/05/22 05:35:37;;;;;;;7.47;1.80;;;10.90;99.90;;;;;;5036502;28;20060;-83
2021/05/22 05:38:03;;;;;;;4.20;1.48;;;10.80;99.90;;;;;;5031667;28;20395;-86
2021/05/22 05:40:31;;;;;;;16.00;2.58;;;10.30;99.90;;;;;;5039465;28;20034;-83
2021/05/22 05:43:04;;;;;;;7.15;1.40;;;10.30;99.90;;;;;;5039256;28;20033;-88
2021/05/22 05:45:30;;;;;;;7.40;1.65;;;10.30;99.90;;;;;;5039137;28;20044;-86
2021/05/22 05:47:56;;;;;;;6.88;2.10;;;10.20;99.90;;;;;;5030396;28;20101;-84
2021/05/22 05:50:22;;;;;;;6.70;1.30;;;10.30;99.90;;;;;;5036853;28;20097;-83
2021/05/22 05:52:48;;;;;;;11.20;3.05;;;10.30;99.90;;;;;;5026833;28;20048;-86
2021/05/22 05:55:14;;;;;;;8.02;2.60;;;11.00;99.90;;;;;;5039214;28;20033;-82
2021/05/22 05:57:39;;;;;;;7.97;1.73;;;10.60;99.90;;;;;;5027992;28;20037;-85
2021/05/22 06:00:06;;;;;;;9.60;1.52;;;10.70;99.90;;;;;;5034721;28;20479;-83
2021/05/22 06:02:32;;;;;;;6.38;1.40;;;10.80;99.90;;;;;;5032564;28;20025;-83
2021/05/22 06:04:58;;;;;;;7.53;2.20;;;10.90;99.90;;;;;;5035090;28;20399;-85
2021/05/22 06:07:23;;;;;;;5.93;1.40;;;10.90;99.90;;;;;;5037817;28;20053;-83
2021/05/22 06:09:49;;;;;;;7.43;1.20;;;10.90;99.90;;;;;;5033912;28;20091;-86
2021/05/22 06:12:15;;;;;;;6.00;1.40;;;10.90;99.90;;;;;;5041659;28;20029;-83
2021/05/22 06:14:44;;;;;;;4.78;1.30;;;10.80;99.90;;;;;;5037683;28;20029;-85
2021/05/22 06:17:10;;;;;;;4.65;1.27;;;10.90;99.90;;;;;;5031751;28;20022;-84
2021/05/22 06:19:36;;;;;;;6.53;1.55;;;10.90;99.90;;;;;;5037720;28;20055;-81
2021/05/22 06:22:01;;;;;;;6.85;1.38;;;11.20;99.90;;;;;;5032730;28;20029;-86
2021/05/22 06:24:27;;;;;;;6.93;1.80;;;10.90;99.90;;;;;;5030947;28;20040;-83
2021/05/22 06:26:54;;;;;;;6.07;1.60;;;11.00;99.90;;;;;;5037944;28;20598;-84
2021/05/22 06:29:20;;;;;;;9.15;2.03;;;11.20;99.90;;;;;;5043528;28;20517;-85
2021/05/22 06:31:45;;;;;;;7.63;1.80;;;11.10;99.90;;;;;;5037276;28;20029;-86
2021/05/22 06:34:11;;;;;;;7.68;1.48;;;10.90;99.90;;;;;;5039420;28;20039;-84
2021/05/22 06:36:37;;;;;;;9.50;2.72;;;10.80;99.90;;;;;;5039897;28;20163;-82
2021/05/22 06:39:03;;;;;;;4.70;1.40;;;10.90;99.90;;;;;;5037425;28;20017;-83
2021/05/22 06:41:29;;;;;;;7.22;1.50;;;10.90;99.90;;;;;;5040156;28;20029;-83
2021/05/22 06:43:55;;;;;;;8.35;2.13;;;10.80;99.90;;;;;;5033398;28;20026;-82
2021/05/22 06:48:46;;;;;;;7.57;1.63;;;10.80;99.90;;;;;;5036895;28;20029;-85
2021/05/22 06:51:12;;;;;;;3.92;1.40;;;10.80;99.90;;;;;;5038069;28;20033;-85
2021/05/22 06:53:38;;;;;;;7.82;1.40;;;10.90;99.90;;;;;;5036108;28;20056;-85
2021/05/22 06:56:04;;;;;;;9.30;1.80;;;10.80;99.90;;;;;;5034666;28;20026;-82
2021/05/22 06:58:30;;;;;;;7.75;1.65;;;10.80;99.90;;;;;;5038573;28;21085;-86
2021/05/22 07:00:57;;;;;;;4.68;1.60;;;11.00;99.90;;;;;;5027478;28;20029;-84
2021/05/22 07:03:25;;;;;;;5.28;1.40;;;11.10;99.90;;;;;;5046408;28;20025;-85
2021/05/22 07:05:55;;;;;;;6.80;1.73;;;11.20;99.90;;;;;;5038670;28;20034;-86
2021/05/22 07:08:20;;;;;;;10.45;1.50;;;11.20;99.90;;;;;;5042056;28;20021;-85
2021/05/22 07:10:47;;;;;;;6.72;1.58;;;11.20;99.90;;;;;;5036746;28;20090;-83
2021/05/22 07:13:13;;;;;;;6.15;1.58;;;11.40;99.90;;;;;;5039132;28;20045;-85
2021/05/22 07:15:38;;;;;;;6.50;1.52;;;11.30;99.90;;;;;;5038812;28;20041;-84
2021/05/22 07:18:04;;;;;;;5.47;1.48;;;11.80;99.90;;;;;;5032675;28;20056;-84
2021/05/22 07:20:30;;;;;;;4.40;1.77;;;11.50;99.90;;;;;;5039812;28;20034;-84
2021/05/22 07:22:56;;;;;;;11.48;1.75;;;12.50;99.90;;;;;;5027096;28;20041;-85
2021/05/22 07:25:25;;;;;;;4.93;1.42;;;11.40;99.90;;;;;;5073346;22;20040;-80
2021/05/22 07:27:52;;;;;;;5.07;1.30;;;12.50;99.90;;;;;;5084306;28;20060;-85
2021/05/22 07:30:23;;;;;;;9.40;2.13;;;11.70;99.90;;;;;;5085600;28;20040;-84
2021/05/22 07:32:49;;;;;;;4.57;1.27;;;11.30;99.90;;;;;;5082700;28;20036;-83
2021/05/22 07:35:16;;;;;;;4.18;1.27;;;11.70;99.90;;;;;;5081773;28;20148;-82
2021/05/22 07:37:42;;;;;;;9.50;2.20;;;12.70;99.90;;;;;;5082441;28;20052;-85
2021/05/22 07:40:10;;;;;;;6.35;1.20;;;11.90;99.90;;;;;;5069777;28;20030;-86
2021/05/22 07:42:38;;;;;;;7.20;1.55;;;12.10;99.90;;;;;;5074065;28;20032;-86
2021/05/22 07:45:05;;;;;;;3.28;1.00;;;12.40;99.90;;;;;;5079312;28;20047;-82
2021/05/22 07:47:31;;;;;;;5.55;1.40;;;12.70;99.90;;;;;;5095934;28;20025;-88
2021/05/22 07:49:59;;;;;;;8.20;1.98;;;12.50;99.90;;;;;;5082801;28;20039;-84
2021/05/22 07:52:25;;;;;;;9.23;1.40;;;13.80;99.90;;;;;;5081321;28;20040;-83
2021/05/22 07:54:53;;;;;;;10.90;1.55;;;12.80;99.90;;;;;;5082478;28;20624;-85
2021/05/22 07:57:22;;;;;;;5.50;1.17;;;13.10;99.70;;;;;;5078775;28;20189;-86
2021/05/22 07:59:47;;;;;;;4.05;0.90;;;13.10;98.40;;;;;;5066543;28;20079;-84
2021/05/22 08:02:13;;;;;;;8.13;1.30;;;12.80;98.90;;;;;;5077030;28;20044;-85
2021/05/22 08:04:39;;;;;;;4.85;1.15;;;14.00;99.30;;;;;;5078090;28;20237;-84
2021/05/22 08:07:05;;;;;;;6.07;0.90;;;13.70;98.10;;;;;;5082084;28;20029;-80
2021/05/22 08:09:30;;;;;;;5.30;1.67;;;13.20;98.30;;;;;;5082818;28;20036;-83
2021/05/22 08:11:56;;;;;;;6.93;1.30;;;13.40;97.00;;;;;;5079914;28;20044;-86
2021/05/22 08:14:28;;;;;;;5.60;1.33;;;13.40;97.20;;;;;;5076550;28;20025;-83
2021/05/22 08:16:53;;;;;;;7.60;1.60;;;13.40;97.00;;;;;;5083642;28;20041;-85
2021/05/22 08:19:19;;;;;;;7.57;1.40;;;13.50;97.00;;;;;;5076075;28;20126;-82
2021/05/22 08:21:50;;;;;;;6.57;1.48;;;14.20;95.80;;;;;;5078935;28;20037;-85
2021/05/22 08:24:16;;;;;;;6.32;1.10;;;13.70;95.50;;;;;;5080059;28;20098;-86
2021/05/22 08:26:43;;;;;;;5.97;1.35;;;14.50;95.50;;;;;;5078752;28;20621;-87
2021/05/22 08:29:09;;;;;;;4.78;0.90;;;14.80;95.60;;;;;;5085891;28;20046;-85
2021/05/22 08:31:35;;;;;;;4.30;0.90;;;13.70;94.80;;;;;;5080695;28;20020;-86
2021/05/22 08:34:05;;;;;;;7.47;1.45;;;14.10;95.50;;;;;;5082814;28;20495;-82
2021/05/22 08:36:33;;;;;;;5.90;2.28;;;13.30;95.90;;;;;;5079829;28;20194;-81
2021/05/22 08:39:00;;;;;;;4.70;1.13;;;14.20;97.30;;;;;;5074659;28;20029;-82
2021/05/22 08:41:30;;;;;;;4.18;1.02;;;13.90;98.20;;;;;;5080017;28;20446;-86
2021/05/22 08:43:56;;;;;;;5.72;1.30;;;14.20;98.50;;;;;;5080552;28;20028;-84
2021/05/22 08:46:21;;;;;;;3.95;0.95;;;13.10;98.80;;;;;;5079972;28;20048;-88
2021/05/22 08:48:48;;;;;;;2.00;0.80;;;12.30;97.30;;;;;;5078420;28;20035;-85
2021/05/22 08:51:15;;;;;;;5.00;0.90;;;13.60;96.60;;;;;;5086041;28;20039;-80
2021/05/22 08:53:41;;;;;;;3.47;0.90;;;14.80;96.00;;;;;;5071236;28;20059;-86
2021/05/22 08:56:07;;;;;;;5.70;1.10;;;13.70;96.30;;;;;;5079931;28;20025;-83
2021/05/22 08:58:33;;;;;;;3.08;0.80;;;13.60;96.00;;;;;;5087034;28;20030;-86
2021/05/22 09:01:01;;;;;;;4.38;1.35;;;13.70;95.30;;;;;;5091212;28;20050;-82
2021/05/22 09:03:27;;;;;;;10.65;2.03;;;14.80;95.90;;;;;;5087895;28;20036;-86
2021/05/22 09:05:53;;;;;;;4.93;1.08;;;15.40;96.30;;;;;;5087712;28;20036;-87
2021/05/22 09:08:19;;;;;;;6.75;0.98;;;13.50;97.20;;;;;;5084429;28;20051;-84
2021/05/22 09:10:47;;;;;;;4.10;1.20;;;14.10;96.60;;;;;;5083579;28;20104;-83
2021/05/22 09:13:20;;;;;;;4.18;1.00;;;14.20;97.00;;;;;;5080042;28;20029;-87
2021/05/22 09:15:47;;;;;;;7.63;1.20;;;14.40;96.60;;;;;;5087292;28;20050;-85
2021/05/22 09:18:21;;;;;;;8.10;2.55;;;13.60;96.20;;;;;;5083787;28;20510;-86
2021/05/22 09:20:57;;;;;;;5.53;1.20;;;14.00;95.10;;;;;;5073805;28;20043;-86
2021/05/22 09:23:32;;;;;;;5.07;1.27;;;15.20;94.60;;;;;;5071864;28;20044;-85
2021/05/22 09:26:05;;;;;;;5.97;1.13;;;14.50;93.60;;;;;;5078083;28;20028;-82
2021/05/22 09:28:34;;;;;;;6.03;1.27;;;13.20;92.30;;;;;;5081103;28;20061;-86
2021/05/22 09:31:01;;;;;;;6.80;1.75;;;14.60;92.30;;;;;;5068974;28;20223;-86
2021/05/22 09:33:29;;;;;;;5.22;1.30;;;14.60;92.80;;;;;;5080576;28;20039;-86
2021/05/22 09:35:59;;;;;;;6.85;1.20;;;14.50;92.80;;;;;;5074687;28;20033;-86
2021/05/22 09:38:45;;;;;;;5.22;1.70;;;14.60;94.90;;;;;;5073427;28;20120;-85
2021/05/22 09:41:24;;;;;;;5.00;1.98;;;15.50;97.70;;;;;;5067143;28;20029;-85
2021/05/22 09:44:09;;;;;;;3.72;1.10;;;13.80;96.90;;;;;;5074056;28;20032;-84
2021/05/22 09:46:37;;;;;;;5.35;1.10;;;13.90;97.70;;;;;;5073466;28;20459;-85
2021/05/22 09:49:08;;;;;;;4.07;1.30;;;14.40;98.50;;;;;;5072821;28;20032;-87
2021/05/22 09:52:04;;;;;;;3.83;1.10;;;15.30;98.40;;;;;;5064694;28;20025;-83
2021/05/22 09:54:50;;;;;;;7.50;1.20;;;14.50;96.90;;;;;;5082202;28;20029;-83
2021/05/22 09:57:31;;;;;;;4.32;1.00;;;14.90;95.90;;;;;;5072717;28;20064;-83
2021/05/22 10:00:20;;;;;;;4.63;1.15;;;15.10;95.10;;;;;;5065589;28;20021;-86
2021/05/22 10:02:53;;;;;;;3.97;1.20;;;15.30;94.00;;;;;;5072419;28;20124;-83
2021/05/22 10:05:32;;;;;;;5.97;1.20;;;14.70;93.10;;;;;;5076844;28;20029;-83
2021/05/22 10:07:59;;;;;;;7.40;1.45;;;15.40;91.90;;;;;;5070739;28;20029;-87
2021/05/22 10:10:41;;;;;;;5.88;1.10;;;15.30;92.10;;;;;;5073949;28;20111;-84
2021/05/22 10:13:08;;;;;;;3.40;0.90;;;15.20;91.50;;;;;;5081931;28;20060;-85
2021/05/22 10:15:34;;;;;;;3.90;0.90;;;16.60;91.60;;;;;;5074205;28;20047;-85
2021/05/22 10:17:59;;;;;;;3.13;0.90;;;15.40;90.50;;;;;;5067026;28;20025;-84
2021/05/22 10:20:25;;;;;;;4.55;0.98;;;15.50;89.20;;;;;;5073436;28;20077;-83
2021/05/22 10:22:51;;;;;;;5.65;1.08;;;17.00;88.30;;;;;;5071579;28;20494;-85
2021/05/22 10:25:17;;;;;;;4.57;1.17;;;17.10;88.80;;;;;;5071823;28;20035;-85
2021/05/22 10:27:43;;;;;;;4.10;1.10;;;15.70;88.50;;;;;;5067016;28;20032;-84
2021/05/22 10:30:09;;;;;;;4.10;1.13;;;16.60;87.60;;;;;;5068880;28;20116;-85
2021/05/22 10:32:37;;;;;;;4.45;0.85;;;15.90;85.10;;;;;;5067892;28;20021;-84
2021/05/22 10:35:12;;;;;;;4.63;1.13;;;15.60;85.90;;;;;;5070925;28;20045;-83
2021/05/22 10:37:41;;;;;;;13.98;2.05;;;15.60;84.40;;;;;;5072062;28;20032;-84
2021/05/22 10:40:09;;;;;;;4.43;1.65;;;16.30;85.20;;;;;;5067012;28;20664;-84
2021/05/22 10:42:35;;;;;;;1.55;0.73;;;15.60;84.60;;;;;;5064625;28;20070;-84
2021/05/22 10:45:25;;;;;;;4.40;1.20;;;16.60;84.00;;;;;;5068856;28;20461;-81
2021/05/22 10:47:51;;;;;;;3.08;0.80;;;15.50;80.80;;;;;;5067524;28;20490;-85
2021/05/22 10:50:42;;;;;;;5.22;0.75;;;15.60;82.50;;;;;;5067391;28;20036;-85
2021/05/22 10:53:19;;;;;;;2.75;0.90;;;15.60;82.50;;;;;;5060465;28;20025;-82
2021/05/22 10:55:45;;;;;;;3.97;0.80;;;15.80;81.20;;;;;;5070255;28;20051;-84
2021/05/22 10:58:11;;;;;;;6.15;1.00;;;15.80;81.50;;;;;;5067534;28;20028;-85
2021/05/22 11:00:37;;;;;;;3.83;1.17;;;15.90;81.60;;;;;;5065852;28;20474;-82
2021/05/22 11:03:06;;;;;;;2.85;1.00;;;16.00;80.40;;;;;;5065004;28;20100;-86
2021/05/22 11:05:36;;;;;;;4.75;1.13;;;16.30;79.20;;;;;;5067542;28;20051;-87
2021/05/22 11:08:08;;;;;;;3.08;0.93;;;16.30;79.90;;;;;;5071595;28;20023;-84
2021/05/22 11:10:42;;;;;;;4.68;1.00;;;16.40;76.30;;;;;;5070805;28;20103;-86
2021/05/22 11:13:20;;;;;;;5.43;1.20;;;16.30;76.70;;;;;;5069427;28;20106;-82
2021/05/22 11:15:51;;;;;;;3.45;0.90;;;16.30;77.50;;;;;;5068918;28;20036;-83
2021/05/22 11:18:20;;;;;;;3.60;1.00;;;16.10;75.40;;;;;;5069847;28;20033;-84
2021/05/22 11:21:19;;;;;;;4.32;0.98;;;16.00;75.50;;;;;;5063571;28;20509;-85
2021/05/22 11:23:57;;;;;;;2.55;1.00;;;15.80;76.50;;;;;;5065750;28;20028;-84
2021/05/22 11:26:58;;;;;;;2.75;0.77;;;15.40;83.40;;;;;;5070448;28;20025;-81
2021/05/22 11:29:54;;;;;;;6.05;1.20;;;15.30;88.50;;;;;;5080404;28;20052;-83
2021/05/22 11:32:59;;;;;;;5.88;1.10;;;14.90;92.10;;;;;;5075377;28;20043;-82
2021/05/22 11:35:31;;;;;;;6.95;2.00;;;14.70;94.80;;;;;;5025272;28;20025;-85
2021/05/22 11:38:22;;;;;;;5.25;0.90;;;14.80;95.30;;;;;;5007882;28;20038;-82
2021/05/22 11:40:49;;;;;;;7.05;1.55;;;15.10;94.10;;;;;;5055111;28;20126;-85
2021/05/22 11:43:15;;;;;;;3.25;1.00;;;15.30;94.10;;;;;;5071301;28;20043;-84
2021/05/22 11:45:41;;;;;;;4.40;1.58;;;15.30;92.80;;;;;;5066564;28;20017;-82
2021/05/22 11:48:29;;;;;;;2.65;1.02;;;15.70;93.20;;;;;;5069870;28;20029;-83
2021/05/22 11:50:58;;;;;;;6.05;1.10;;;15.70;91.90;;;;;;5074419;28;20021;-85
2021/05/22 11:53:28;;;;;;;5.07;1.25;;;15.80;91.80;;;;;;5071837;28;20033;-84
2021/05/22 11:56:03;;;;;;;4.68;1.08;;;15.90;91.00;;;;;;5080268;28;20044;-83
2021/05/22 11:58:30;;;;;;;5.55;1.77;;;16.00;90.10;;;;;;5069799;28;20036;-83
2021/05/22 12:01:19;;;;;;;2.40;0.80;;;15.90;89.20;;;;;;5067197;28;20037;-80
2021/05/22 12:03:47;;;;;;;4.60;0.95;;;15.80;87.20;;;;;;5068998;28;20029;-82
2021/05/22 12:06:24;;;;;;;4.45;0.98;;;16.30;87.30;;;;;;5072445;28;20025;-83
2021/05/22 12:09:00;;;;;;;3.22;1.05;;;16.70;85.00;;;;;;5071463;28;20028;-83
2021/05/22 12:11:29;;;;;;;4.97;1.23;;;16.90;80.00;;;;;;5073069;28;20021;-83
2021/05/22 12:13:58;;;;;;;5.22;1.15;;;17.40;78.90;;;;;;5070664;28;20036;-84
2021/05/22 12:16:24;;;;;;;3.33;0.90;;;16.80;75.30;;;;;;5069930;28;20387;-84
2021/05/22 12:18:52;;;;;;;3.80;1.15;;;17.00;75.10;;;;;;5069529;28;20029;-87
2021/05/22 12:21:27;;;;;;;2.95;0.73;;;16.90;72.30;;;;;;5067666;28;20029;-84
2021/05/22 12:23:59;;;;;;;4.93;1.30;;;17.00;69.80;;;;;;5069192;28;20412;-84
2021/05/22 12:26:25;;;;;;;2.78;0.98;;;16.90;69.40;;;;;;5075253;28;20024;-83
2021/05/22 12:28:50;;;;;;;3.83;1.00;;;16.90;67.90;;;;;;5075637;28;20035;-80
2021/05/22 12:31:17;;;;;;;4.78;1.42;;;16.90;69.00;;;;;;5067717;28;20547;-82
2021/05/22 12:33:59;;;;;;;4.25;1.10;;;18.30;68.20;;;;;;5070724;28;20024;-81
2021/05/22 12:36:26;;;;;;;3.55;0.85;;;17.40;66.70;;;;;;5068542;28;20025;-80
2021/05/22 12:38:52;;;;;;;5.05;1.33;;;18.10;66.80;;;;;;5064781;28;20025;-82
2021/05/22 12:41:35;;;;;;;3.20;0.95;;;17.10;65.80;;;;;;5082952;28;20028;-85
2021/05/22 12:44:01;;;;;;;2.38;0.88;;;16.70;66.30;;;;;;5078423;28;20029;-83
2021/05/22 12:46:31;;;;;;;2.70;0.82;;;16.60;66.30;;;;;;5075618;28;20021;-83
2021/05/22 12:49:19;;;;;;;3.78;1.00;;;16.70;66.10;;;;;;5067551;28;20024;-81
2021/05/22 12:52:00;;;;;;;4.75;1.50;;;16.70;66.80;;;;;;5074265;28;20041;-84
2021/05/22 12:54:31;;;;;;;2.97;0.95;;;16.60;66.40;;;;;;5062586;28;20032;-85
2021/05/22 12:57:12;;;;;;;5.10;1.58;;;16.50;66.20;;;;;;5074064;28;20032;-86
2021/05/22 13:00:05;;;;;;;1.83;1.00;;;16.50;67.90;;;;;;5069224;28;20032;-81